Terminal Aerodrome Forecast
Issued by NWS Charleston, WV

Current Version | Previous Version | Graphics & Text | Print | Product List | Glossary On
Versions: 1 2 3 4 5 6 7 8 9 10 11 12 13 14 15 16 17 18 19 20 21 22 23 24 25 26 27 28 29
000
FTUS41 KRLX 021806 AAA
TAFCRW
TAF AMD
KCRW 021806Z 0218/0318 VRB04KT 5SM -SHRA OVC060
     FM022000 06004KT P6SM BKN020
     FM030000 00000KT P6SM BKN050
     FM030500 00000KT 3SM BR OVC060
     FM030600 00000KT 1/2SM FG BKN001
     FM031300 00000KT 3SM BR VCSH BKN008 BKN250
     FM031400 00000KT P6SM -SHRA OVC150
     FM031700 00000KT P6SM +SHRA VCTS OVC030CB=

USA.gov is the U.S. government's official web portal to all federal, state and local government web resources and services.